sensor_id;sensor_type;location;lat;lon;timestamp;P1;durP1;ratioP1;P2;durP2;ratioP2
18875;SDS011;9570;50.854;13.778;2023-07-22T00:02:17;5.37;;;2.67;;
18875;SDS011;9570;50.854;13.778;2023-07-22T00:04:42;3.80;;;2.53;;
18875;SDS011;9570;50.854;13.778;2023-07-22T00:07:08;2.97;;;2.67;;
18875;SDS011;9570;50.854;13.778;2023-07-22T00:09:34;4.50;;;2.60;;
18875;SDS011;9570;50.854;13.778;2023-07-22T00:12:00;4.07;;;2.83;;
18875;SDS011;9570;50.854;13.778;2023-07-22T00:14:25;6.03;;;2.93;;
18875;SDS011;9570;50.854;13.778;2023-07-22T00:16:51;4.60;;;2.47;;
18875;SDS011;9570;50.854;13.778;2023-07-22T00:19:16;4.57;;;2.90;;
18875;SDS011;9570;50.854;13.778;2023-07-22T00:21:42;3.93;;;2.77;;
18875;SDS011;9570;50.854;13.778;2023-07-22T00:24:07;3.53;;;2.47;;
18875;SDS011;9570;50.854;13.778;2023-07-22T00:26:33;3.80;;;2.70;;
18875;SDS011;9570;50.854;13.778;2023-07-22T00:28:59;3.70;;;2.40;;
18875;SDS011;9570;50.854;13.778;2023-07-22T00:31:24;3.63;;;2.50;;
18875;SDS011;9570;50.854;13.778;2023-07-22T00:33:50;3.43;;;2.43;;
18875;SDS011;9570;50.854;13.778;2023-07-22T00:36:15;2.73;;;2.20;;
18875;SDS011;9570;50.854;13.778;2023-07-22T00:38:41;4.43;;;2.60;;
18875;SDS011;9570;50.854;13.778;2023-07-22T00:41:06;6.13;;;2.80;;
18875;SDS011;9570;50.854;13.778;2023-07-22T00:43:32;4.03;;;2.50;;
18875;SDS011;9570;50.854;13.778;2023-07-22T00:45:57;3.77;;;2.53;;
18875;SDS011;9570;50.854;13.778;2023-07-22T00:48:23;3.53;;;2.77;;
18875;SDS011;9570;50.854;13.778;2023-07-22T00:50:49;4.67;;;2.50;;
18875;SDS011;9570;50.854;13.778;2023-07-22T00:53:15;6.17;;;2.57;;
18875;SDS011;9570;50.854;13.778;2023-07-22T00:55:41;3.90;;;2.57;;
18875;SDS011;9570;50.854;13.778;2023-07-22T00:58:07;3.90;;;2.90;;
18875;SDS011;9570;50.854;13.778;2023-07-22T01:00:32;3.50;;;2.60;;
18875;SDS011;9570;50.854;13.778;2023-07-22T01:02:58;5.43;;;2.60;;
18875;SDS011;9570;50.854;13.778;2023-07-22T01:05:24;4.27;;;3.00;;
18875;SDS011;9570;50.854;13.778;2023-07-22T01:07:51;2.90;;;2.60;;
18875;SDS011;9570;50.854;13.778;2023-07-22T01:10:17;4.17;;;2.70;;
18875;SDS011;9570;50.854;13.778;2023-07-22T01:12:44;5.17;;;2.70;;
18875;SDS011;9570;50.854;13.778;2023-07-22T01:15:10;4.20;;;2.60;;
18875;SDS011;9570;50.854;13.778;2023-07-22T01:17:39;4.63;;;2.67;;
18875;SDS011;9570;50.854;13.778;2023-07-22T01:20:05;2.60;;;2.40;;
18875;SDS011;9570;50.854;13.778;2023-07-22T01:22:31;6.07;;;2.87;;
18875;SDS011;9570;50.854;13.778;2023-07-22T01:24:58;5.63;;;3.00;;
18875;SDS011;9570;50.854;13.778;2023-07-22T01:27:24;4.97;;;2.53;;
18875;SDS011;9570;50.854;13.778;2023-07-22T01:29:50;3.30;;;2.50;;
18875;SDS011;9570;50.854;13.778;2023-07-22T01:32:16;6.23;;;2.70;;
18875;SDS011;9570;50.854;13.778;2023-07-22T01:34:43;8.03;;;3.13;;
18875;SDS011;9570;50.854;13.778;2023-07-22T01:37:08;4.87;;;2.67;;
18875;SDS011;9570;50.854;13.778;2023-07-22T01:39:36;3.10;;;2.80;;
18875;SDS011;9570;50.854;13.778;2023-07-22T01:42:02;4.20;;;2.53;;
18875;SDS011;9570;50.854;13.778;2023-07-22T01:44:28;5.93;;;2.63;;
18875;SDS011;9570;50.854;13.778;2023-07-22T01:46:54;4.43;;;2.90;;
18875;SDS011;9570;50.854;13.778;2023-07-22T01:49:20;6.20;;;3.00;;
18875;SDS011;9570;50.854;13.778;2023-07-22T01:51:46;3.20;;;2.77;;
18875;SDS011;9570;50.854;13.778;2023-07-22T01:54:11;9.43;;;3.17;;
18875;SDS011;9570;50.854;13.778;2023-07-22T01:56:37;3.57;;;2.50;;
18875;SDS011;9570;50.854;13.778;2023-07-22T01:59:04;3.87;;;3.00;;
18875;SDS011;9570;50.854;13.778;2023-07-22T02:01:30;5.63;;;3.10;;
18875;SDS011;9570;50.854;13.778;2023-07-22T02:03:55;5.57;;;3.00;;
18875;SDS011;9570;50.854;13.778;2023-07-22T02:06:21;5.47;;;3.00;;
18875;SDS011;9570;50.854;13.778;2023-07-22T02:08:47;4.23;;;2.93;;
18875;SDS011;9570;50.854;13.778;2023-07-22T02:11:12;7.73;;;2.93;;
18875;SDS011;9570;50.854;13.778;2023-07-22T02:13:38;4.10;;;3.07;;
18875;SDS011;9570;50.854;13.778;2023-07-22T02:16:03;4.37;;;3.13;;
18875;SDS011;9570;50.854;13.778;2023-07-22T02:18:29;7.47;;;3.50;;
18875;SDS011;9570;50.854;13.778;2023-07-22T02:20:55;6.20;;;3.73;;
18875;SDS011;9570;50.854;13.778;2023-07-22T02:23:22;5.03;;;3.30;;
18875;SDS011;9570;50.854;13.778;2023-07-22T02:25:49;7.40;;;3.43;;
18875;SDS011;9570;50.854;13.778;2023-07-22T02:28:15;4.97;;;3.43;;
18875;SDS011;9570;50.854;13.778;2023-07-22T02:30:40;5.27;;;3.03;;
18875;SDS011;9570;50.854;13.778;2023-07-22T02:33:07;3.60;;;3.20;;
18875;SDS011;9570;50.854;13.778;2023-07-22T02:35:33;8.87;;;3.43;;
18875;SDS011;9570;50.854;13.778;2023-07-22T02:37:58;7.83;;;3.73;;
18875;SDS011;9570;50.854;13.778;2023-07-22T02:40:24;4.27;;;3.40;;
18875;SDS011;9570;50.854;13.778;2023-07-22T02:42:49;5.73;;;3.80;;
18875;SDS011;9570;50.854;13.778;2023-07-22T02:45:15;7.73;;;3.60;;
18875;SDS011;9570;50.854;13.778;2023-07-22T02:47:40;3.83;;;3.33;;
18875;SDS011;9570;50.854;13.778;2023-07-22T02:50:06;3.90;;;3.60;;
18875;SDS011;9570;50.854;13.778;2023-07-22T02:52:32;5.77;;;3.73;;
18875;SDS011;9570;50.854;13.778;2023-07-22T02:55:08;4.23;;;3.90;;
18875;SDS011;9570;50.854;13.778;2023-07-22T02:57:43;3.90;;;3.50;;
18875;SDS011;9570;50.854;13.778;2023-07-22T03:00:11;6.63;;;3.97;;
18875;SDS011;9570;50.854;13.778;2023-07-22T03:02:37;5.30;;;3.77;;
18875;SDS011;9570;50.854;13.778;2023-07-22T03:05:04;9.13;;;4.30;;
18875;SDS011;9570;50.854;13.778;2023-07-22T03:07:33;5.27;;;4.27;;
18875;SDS011;9570;50.854;13.778;2023-07-22T03:09:59;4.73;;;4.20;;
18875;SDS011;9570;50.854;13.778;2023-07-22T03:12:25;10.47;;;4.73;;
18875;SDS011;9570;50.854;13.778;2023-07-22T03:14:50;5.53;;;4.37;;
18875;SDS011;9570;50.854;13.778;2023-07-22T03:17:17;7.20;;;4.90;;
18875;SDS011;9570;50.854;13.778;2023-07-22T03:19:43;5.97;;;4.67;;
18875;SDS011;9570;50.854;13.778;2023-07-22T03:22:08;5.30;;;4.30;;
18875;SDS011;9570;50.854;13.778;2023-07-22T03:24:35;5.47;;;4.97;;
18875;SDS011;9570;50.854;13.778;2023-07-22T03:27:00;5.47;;;4.97;;
18875;SDS011;9570;50.854;13.778;2023-07-22T03:29:26;6.90;;;5.00;;
18875;SDS011;9570;50.854;13.778;2023-07-22T03:31:52;7.27;;;4.67;;
18875;SDS011;9570;50.854;13.778;2023-07-22T03:34:18;7.27;;;4.37;;
18875;SDS011;9570;50.854;13.778;2023-07-22T03:36:43;7.50;;;4.90;;
18875;SDS011;9570;50.854;13.778;2023-07-22T03:39:09;5.17;;;4.30;;
18875;SDS011;9570;50.854;13.778;2023-07-22T03:41:34;5.40;;;4.73;;
18875;SDS011;9570;50.854;13.778;2023-07-22T03:44:00;5.70;;;4.67;;
18875;SDS011;9570;50.854;13.778;2023-07-22T03:46:25;7.73;;;4.90;;
18875;SDS011;9570;50.854;13.778;2023-07-22T03:48:51;7.13;;;4.47;;
18875;SDS011;9570;50.854;13.778;2023-07-22T03:51:16;8.83;;;5.07;;
18875;SDS011;9570;50.854;13.778;2023-07-22T03:53:42;6.10;;;5.50;;
18875;SDS011;9570;50.854;13.778;2023-07-22T03:56:07;7.53;;;4.87;;
18875;SDS011;9570;50.854;13.778;2023-07-22T03:58:33;6.67;;;4.90;;
18875;SDS011;9570;50.854;13.778;2023-07-22T04:00:58;6.03;;;4.70;;
18875;SDS011;9570;50.854;13.778;2023-07-22T04:03:24;4.90;;;4.40;;
18875;SDS011;9570;50.854;13.778;2023-07-22T04:05:53;7.00;;;4.97;;
18875;SDS011;9570;50.854;13.778;2023-07-22T04:08:19;9.10;;;4.97;;
18875;SDS011;9570;50.854;13.778;2023-07-22T04:10:54;8.10;;;4.77;;
18875;SDS011;9570;50.854;13.778;2023-07-22T04:13:21;7.33;;;4.30;;
18875;SDS011;9570;50.854;13.778;2023-07-22T04:15:48;4.70;;;4.17;;
18875;SDS011;9570;50.854;13.778;2023-07-22T04:18:16;8.67;;;4.97;;
18875;SDS011;9570;50.854;13.778;2023-07-22T04:20:43;5.83;;;4.57;;
18875;SDS011;9570;50.854;13.778;2023-07-22T04:23:09;5.53;;;5.00;;
18875;SDS011;9570;50.854;13.778;2023-07-22T04:25:41;5.30;;;4.80;;
18875;SDS011;9570;50.854;13.778;2023-07-22T04:28:07;5.97;;;5.30;;
18875;SDS011;9570;50.854;13.778;2023-07-22T04:30:34;6.20;;;4.63;;
18875;SDS011;9570;50.854;13.778;2023-07-22T04:33:00;6.77;;;4.73;;
18875;SDS011;9570;50.854;13.778;2023-07-22T04:35:25;5.40;;;4.90;;
18875;SDS011;9570;50.854;13.778;2023-07-22T04:37:51;5.13;;;4.70;;
18875;SDS011;9570;50.854;13.778;2023-07-22T04:40:16;9.20;;;4.60;;
18875;SDS011;9570;50.854;13.778;2023-07-22T04:42:43;4.87;;;4.37;;
18875;SDS011;9570;50.854;13.778;2023-07-22T04:45:10;7.17;;;5.27;;
18875;SDS011;9570;50.854;13.778;2023-07-22T04:47:36;8.77;;;5.10;;
18875;SDS011;9570;50.854;13.778;2023-07-22T04:50:06;7.50;;;5.07;;
18875;SDS011;9570;50.854;13.778;2023-07-22T04:52:35;5.20;;;4.67;;
18875;SDS011;9570;50.854;13.778;2023-07-22T04:55:01;5.63;;;5.03;;
18875;SDS011;9570;50.854;13.778;2023-07-22T04:57:43;8.47;;;5.30;;
18875;SDS011;9570;50.854;13.778;2023-07-22T05:00:12;6.13;;;4.70;;
18875;SDS011;9570;50.854;13.778;2023-07-22T05:02:39;5.23;;;4.57;;
18875;SDS011;9570;50.854;13.778;2023-07-22T05:05:05;4.97;;;4.30;;
18875;SDS011;9570;50.854;13.778;2023-07-22T05:07:31;4.77;;;4.37;;
18875;SDS011;9570;50.854;13.778;2023-07-22T05:09:57;5.97;;;4.57;;
18875;SDS011;9570;50.854;13.778;2023-07-22T05:12:23;5.00;;;4.53;;
18875;SDS011;9570;50.854;13.778;2023-07-22T05:14:48;4.70;;;4.30;;
18875;SDS011;9570;50.854;13.778;2023-07-22T05:17:14;8.43;;;4.70;;
18875;SDS011;9570;50.854;13.778;2023-07-22T05:19:40;7.17;;;5.33;;
18875;SDS011;9570;50.854;13.778;2023-07-22T05:22:06;5.40;;;4.47;;
18875;SDS011;9570;50.854;13.778;2023-07-22T05:24:32;7.13;;;4.60;;
18875;SDS011;9570;50.854;13.778;2023-07-22T05:26:57;5.20;;;4.50;;
18875;SDS011;9570;50.854;13.778;2023-07-22T05:29:23;9.63;;;5.30;;
18875;SDS011;9570;50.854;13.778;2023-07-22T05:31:48;5.90;;;5.13;;
18875;SDS011;9570;50.854;13.778;2023-07-22T05:34:14;6.70;;;5.23;;
18875;SDS011;9570;50.854;13.778;2023-07-22T05:36:39;8.30;;;5.70;;
18875;SDS011;9570;50.854;13.778;2023-07-22T05:39:05;8.67;;;5.73;;
18875;SDS011;9570;50.854;13.778;2023-07-22T05:41:32;8.37;;;5.90;;
18875;SDS011;9570;50.854;13.778;2023-07-22T05:43:58;7.77;;;5.63;;
18875;SDS011;9570;50.854;13.778;2023-07-22T05:46:23;8.60;;;5.90;;
18875;SDS011;9570;50.854;13.778;2023-07-22T05:48:49;8.43;;;6.50;;
18875;SDS011;9570;50.854;13.778;2023-07-22T05:51:14;6.20;;;5.60;;
18875;SDS011;9570;50.854;13.778;2023-07-22T05:53:40;7.13;;;5.57;;
18875;SDS011;9570;50.854;13.778;2023-07-22T05:56:06;7.27;;;5.73;;
18875;SDS011;9570;50.854;13.778;2023-07-22T05:58:31;6.27;;;5.57;;
18875;SDS011;9570;50.854;13.778;2023-07-22T06:00:57;10.77;;;5.90;;
18875;SDS011;9570;50.854;13.778;2023-07-22T06:03:22;6.70;;;5.07;;
18875;SDS011;9570;50.854;13.778;2023-07-22T06:05:48;5.20;;;4.70;;
18875;SDS011;9570;50.854;13.778;2023-07-22T06:08:13;7.17;;;4.70;;
18875;SDS011;9570;50.854;13.778;2023-07-22T06:10:42;7.00;;;4.90;;
18875;SDS011;9570;50.854;13.778;2023-07-22T06:13:08;8.23;;;5.37;;
18875;SDS011;9570;50.854;13.778;2023-07-22T06:15:33;5.13;;;4.63;;
18875;SDS011;9570;50.854;13.778;2023-07-22T06:17:59;6.47;;;4.40;;
18875;SDS011;9570;50.854;13.778;2023-07-22T06:20:25;5.27;;;4.47;;
18875;SDS011;9570;50.854;13.778;2023-07-22T06:22:52;7.63;;;4.10;;
18875;SDS011;9570;50.854;13.778;2023-07-22T06:25:17;6.33;;;4.33;;
18875;SDS011;9570;50.854;13.778;2023-07-22T06:27:43;7.37;;;4.73;;
18875;SDS011;9570;50.854;13.778;2023-07-22T06:30:08;6.63;;;4.63;;
18875;SDS011;9570;50.854;13.778;2023-07-22T06:32:36;7.87;;;5.00;;
18875;SDS011;9570;50.854;13.778;2023-07-22T06:35:02;7.03;;;4.63;;
18875;SDS011;9570;50.854;13.778;2023-07-22T06:37:28;8.93;;;4.83;;
18875;SDS011;9570;50.854;13.778;2023-07-22T06:39:53;8.47;;;4.97;;
18875;SDS011;9570;50.854;13.778;2023-07-22T06:42:19;6.80;;;5.13;;
18875;SDS011;9570;50.854;13.778;2023-07-22T06:44:44;9.63;;;4.73;;
18875;SDS011;9570;50.854;13.778;2023-07-22T06:47:10;5.70;;;4.80;;
18875;SDS011;9570;50.854;13.778;2023-07-22T06:49:35;6.17;;;4.73;;
18875;SDS011;9570;50.854;13.778;2023-07-22T06:52:01;7.50;;;5.00;;
18875;SDS011;9570;50.854;13.778;2023-07-22T06:54:27;5.83;;;4.53;;
18875;SDS011;9570;50.854;13.778;2023-07-22T06:56:53;9.47;;;4.70;;
18875;SDS011;9570;50.854;13.778;2023-07-22T06:59:18;6.13;;;5.03;;
18875;SDS011;9570;50.854;13.778;2023-07-22T07:01:44;8.17;;;5.00;;
18875;SDS011;9570;50.854;13.778;2023-07-22T07:04:09;6.97;;;5.20;;
18875;SDS011;9570;50.854;13.778;2023-07-22T07:06:35;8.77;;;5.00;;
18875;SDS011;9570;50.854;13.778;2023-07-22T07:09:03;6.83;;;4.90;;
18875;SDS011;9570;50.854;13.778;2023-07-22T07:11:30;6.40;;;4.47;;
18875;SDS011;9570;50.854;13.778;2023-07-22T07:13:56;7.03;;;4.27;;
18875;SDS011;9570;50.854;13.778;2023-07-22T07:16:23;8.40;;;4.33;;
18875;SDS011;9570;50.854;13.778;2023-07-22T07:18:52;6.10;;;4.30;;
18875;SDS011;9570;50.854;13.778;2023-07-22T07:21:19;7.10;;;4.70;;
18875;SDS011;9570;50.854;13.778;2023-07-22T07:23:45;7.13;;;5.37;;
18875;SDS011;9570;50.854;13.778;2023-07-22T07:26:10;6.23;;;4.70;;
18875;SDS011;9570;50.854;13.778;2023-07-22T07:28:36;6.10;;;4.90;;
18875;SDS011;9570;50.854;13.778;2023-07-22T07:31:02;6.70;;;4.57;;
18875;SDS011;9570;50.854;13.778;2023-07-22T07:33:28;5.70;;;4.30;;
18875;SDS011;9570;50.854;13.778;2023-07-22T07:35:54;6.37;;;4.93;;
18875;SDS011;9570;50.854;13.778;2023-07-22T07:38:19;6.03;;;5.13;;
18875;SDS011;9570;50.854;13.778;2023-07-22T07:40:45;6.13;;;4.67;;
18875;SDS011;9570;50.854;13.778;2023-07-22T07:43:10;5.80;;;4.40;;
18875;SDS011;9570;50.854;13.778;2023-07-22T07:45:38;5.53;;;5.00;;
18875;SDS011;9570;50.854;13.778;2023-07-22T07:48:04;6.25;;;5.28;;
18875;SDS011;9570;50.854;13.778;2023-07-22T07:50:30;6.57;;;4.83;;
18875;SDS011;9570;50.854;13.778;2023-07-22T07:52:55;5.97;;;5.30;;
18875;SDS011;9570;50.854;13.778;2023-07-22T07:55:21;9.67;;;5.00;;
18875;SDS011;9570;50.854;13.778;2023-07-22T07:57:46;6.07;;;4.80;;
18875;SDS011;9570;50.854;13.778;2023-07-22T08:00:12;7.07;;;5.20;;
18875;SDS011;9570;50.854;13.778;2023-07-22T08:02:38;6.37;;;5.07;;
18875;SDS011;9570;50.854;13.778;2023-07-22T08:05:03;5.67;;;4.60;;
18875;SDS011;9570;50.854;13.778;2023-07-22T08:07:30;4.77;;;4.23;;
18875;SDS011;9570;50.854;13.778;2023-07-22T08:09:56;6.03;;;4.83;;
18875;SDS011;9570;50.854;13.778;2023-07-22T08:12:23;8.43;;;5.43;;
18875;SDS011;9570;50.854;13.778;2023-07-22T08:14:48;6.63;;;5.67;;
18875;SDS011;9570;50.854;13.778;2023-07-22T08:17:14;5.40;;;4.87;;
18875;SDS011;9570;50.854;13.778;2023-07-22T08:19:39;6.73;;;5.30;;
18875;SDS011;9570;50.854;13.778;2023-07-22T08:22:04;5.80;;;4.90;;
18875;SDS011;9570;50.854;13.778;2023-07-22T08:24:31;5.93;;;4.67;;
18875;SDS011;9570;50.854;13.778;2023-07-22T08:26:57;4.67;;;4.17;;
18875;SDS011;9570;50.854;13.778;2023-07-22T08:29:23;4.90;;;4.37;;
18875;SDS011;9570;50.854;13.778;2023-07-22T08:31:49;7.13;;;5.33;;
18875;SDS011;9570;50.854;13.778;2023-07-22T08:34:14;7.10;;;5.13;;
18875;SDS011;9570;50.854;13.778;2023-07-22T08:36:40;5.03;;;4.53;;
18875;SDS011;9570;50.854;13.778;2023-07-22T08:39:06;6.60;;;4.93;;
18875;SDS011;9570;50.854;13.778;2023-07-22T08:41:32;6.70;;;5.13;;
18875;SDS011;9570;50.854;13.778;2023-07-22T08:43:59;6.93;;;4.70;;
18875;SDS011;9570;50.854;13.778;2023-07-22T08:46:27;6.40;;;4.73;;
18875;SDS011;9570;50.854;13.778;2023-07-22T08:48:57;5.37;;;4.37;;
18875;SDS011;9570;50.854;13.778;2023-07-22T08:51:25;4.83;;;4.33;;
18875;SDS011;9570;50.854;13.778;2023-07-22T08:53:55;5.27;;;4.17;;
18875;SDS011;9570;50.854;13.778;2023-07-22T08:56:24;5.43;;;4.00;;
18875;SDS011;9570;50.854;13.778;2023-07-22T08:58:51;5.13;;;4.40;;
18875;SDS011;9570;50.854;13.778;2023-07-22T09:01:17;4.53;;;4.03;;
18875;SDS011;9570;50.854;13.778;2023-07-22T09:03:42;3.80;;;3.40;;
18875;SDS011;9570;50.854;13.778;2023-07-22T09:06:08;4.47;;;3.77;;
18875;SDS011;9570;50.854;13.778;2023-07-22T09:08:35;3.83;;;3.07;;
18875;SDS011;9570;50.854;13.778;2023-07-22T09:11:01;5.17;;;3.40;;
18875;SDS011;9570;50.854;13.778;2023-07-22T09:13:27;4.03;;;3.60;;
18875;SDS011;9570;50.854;13.778;2023-07-22T09:15:53;6.60;;;4.30;;
18875;SDS011;9570;50.854;13.778;2023-07-22T09:18:21;9.67;;;4.37;;
18875;SDS011;9570;50.854;13.778;2023-07-22T09:20:47;4.47;;;3.73;;
18875;SDS011;9570;50.854;13.778;2023-07-22T09:23:13;4.83;;;3.80;;
18875;SDS011;9570;50.854;13.778;2023-07-22T09:25:39;5.73;;;4.17;;
18875;SDS011;9570;50.854;13.778;2023-07-22T09:28:05;6.43;;;3.87;;
18875;SDS011;9570;50.854;13.778;2023-07-22T09:30:32;4.30;;;3.63;;
18875;SDS011;9570;50.854;13.778;2023-07-22T09:33:00;5.77;;;3.70;;
18875;SDS011;9570;50.854;13.778;2023-07-22T09:35:38;3.40;;;3.10;;
18875;SDS011;9570;50.854;13.778;2023-07-22T09:38:09;3.67;;;3.20;;
18875;SDS011;9570;50.854;13.778;2023-07-22T09:40:35;3.10;;;2.73;;
18875;SDS011;9570;50.854;13.778;2023-07-22T09:43:01;2.80;;;2.60;;
18875;SDS011;9570;50.854;13.778;2023-07-22T09:45:28;3.07;;;2.67;;
18875;SDS011;9570;50.854;13.778;2023-07-22T09:47:55;2.87;;;2.60;;
18875;SDS011;9570;50.854;13.778;2023-07-22T09:50:22;3.90;;;2.60;;
18875;SDS011;9570;50.854;13.778;2023-07-22T09:55:21;3.80;;;2.70;;
18875;SDS011;9570;50.854;13.778;2023-07-22T09:57:55;3.53;;;2.40;;
18875;SDS011;9570;50.854;13.778;2023-07-22T10:00:28;2.70;;;2.50;;
18875;SDS011;9570;50.854;13.778;2023-07-22T10:02:58;4.15;;;2.55;;
18875;SDS011;9570;50.854;13.778;2023-07-22T10:05:26;2.50;;;2.30;;
18875;SDS011;9570;50.854;13.778;2023-07-22T10:07:54;4.68;;;2.47;;
18875;SDS011;9570;50.854;13.778;2023-07-22T10:10:22;2.78;;;2.03;;
18875;SDS011;9570;50.854;13.778;2023-07-22T10:12:51;3.85;;;2.03;;
18875;SDS011;9570;50.854;13.778;2023-07-22T10:15:18;2.53;;;2.17;;
18875;SDS011;9570;50.854;13.778;2023-07-22T10:17:44;5.23;;;2.27;;
18875;SDS011;9570;50.854;13.778;2023-07-22T10:20:11;2.73;;;2.50;;
18875;SDS011;9570;50.854;13.778;2023-07-22T10:22:41;4.40;;;2.40;;
18875;SDS011;9570;50.854;13.778;2023-07-22T10:25:08;2.60;;;2.40;;
18875;SDS011;9570;50.854;13.778;2023-07-22T10:27:36;3.00;;;2.70;;
18875;SDS011;9570;50.854;13.778;2023-07-22T10:30:04;2.60;;;2.40;;
18875;SDS011;9570;50.854;13.778;2023-07-22T10:32:40;2.93;;;2.70;;
18875;SDS011;9570;50.854;13.778;2023-07-22T10:35:10;4.37;;;2.87;;
18875;SDS011;9570;50.854;13.778;2023-07-22T10:38:06;3.07;;;2.40;;
18875;SDS011;9570;50.854;13.778;2023-07-22T10:43:10;4.38;;;2.60;;
18875;SDS011;9570;50.854;13.778;2023-07-22T10:45:40;2.30;;;2.10;;
18875;SDS011;9570;50.854;13.778;2023-07-22T10:48:08;2.77;;;2.57;;
18875;SDS011;9570;50.854;13.778;2023-07-22T10:50:42;2.50;;;2.30;;
18875;SDS011;9570;50.854;13.778;2023-07-22T10:53:13;2.67;;;2.30;;
18875;SDS011;9570;50.854;13.778;2023-07-22T11:04:05;6.50;;;2.50;;
18875;SDS011;9570;50.854;13.778;2023-07-22T11:06:35;2.60;;;2.40;;
18875;SDS011;9570;50.854;13.778;2023-07-22T11:09:02;3.03;;;2.73;;
18875;SDS011;9570;50.854;13.778;2023-07-22T11:11:35;2.87;;;2.47;;
18875;SDS011;9570;50.854;13.778;2023-07-22T11:16:44;5.73;;;2.60;;
18875;SDS011;9570;50.854;13.778;2023-07-22T11:19:12;2.87;;;2.57;;
18875;SDS011;9570;50.854;13.778;2023-07-22T11:21:39;4.70;;;2.73;;
18875;SDS011;9570;50.854;13.778;2023-07-22T11:24:05;3.67;;;2.70;;
18875;SDS011;9570;50.854;13.778;2023-07-22T11:26:32;2.17;;;2.07;;
18875;SDS011;9570;50.854;13.778;2023-07-22T11:28:58;2.50;;;2.30;;
18875;SDS011;9570;50.854;13.778;2023-07-22T11:31:30;3.63;;;2.40;;
18875;SDS011;9570;50.854;13.778;2023-07-22T11:33:57;3.90;;;2.67;;
18875;SDS011;9570;50.854;13.778;2023-07-22T11:36:23;2.83;;;2.30;;
18875;SDS011;9570;50.854;13.778;2023-07-22T11:38:49;3.10;;;2.30;;
18875;SDS011;9570;50.854;13.778;2023-07-22T11:41:15;3.23;;;2.40;;
18875;SDS011;9570;50.854;13.778;2023-07-22T11:43:40;3.77;;;2.60;;
18875;SDS011;9570;50.854;13.778;2023-07-22T11:46:06;3.30;;;2.30;;
18875;SDS011;9570;50.854;13.778;2023-07-22T11:48:32;3.70;;;2.10;;
18875;SDS011;9570;50.854;13.778;2023-07-22T11:51:00;2.60;;;2.40;;
18875;SDS011;9570;50.854;13.778;2023-07-22T11:53:26;3.13;;;2.40;;
18875;SDS011;9570;50.854;13.778;2023-07-22T11:55:52;3.40;;;2.40;;
18875;SDS011;9570;50.854;13.778;2023-07-22T11:58:25;2.73;;;2.50;;
18875;SDS011;9570;50.854;13.778;2023-07-22T12:01:07;2.70;;;2.50;;
18875;SDS011;9570;50.854;13.778;2023-07-22T12:03:35;2.70;;;2.30;;
18875;SDS011;9570;50.854;13.778;2023-07-22T12:06:02;3.17;;;2.33;;
18875;SDS011;9570;50.854;13.778;2023-07-22T12:08:28;2.57;;;2.00;;
18875;SDS011;9570;50.854;13.778;2023-07-22T12:10:57;2.13;;;1.93;;
18875;SDS011;9570;50.854;13.778;2023-07-22T12:13:23;4.23;;;2.23;;
18875;SDS011;9570;50.854;13.778;2023-07-22T12:16:02;3.50;;;2.37;;
18875;SDS011;9570;50.854;13.778;2023-07-22T12:18:42;3.00;;;2.10;;
18875;SDS011;9570;50.854;13.778;2023-07-22T12:21:08;3.20;;;2.30;;
18875;SDS011;9570;50.854;13.778;2023-07-22T12:23:34;2.27;;;2.07;;
18875;SDS011;9570;50.854;13.778;2023-07-22T12:26:01;3.57;;;2.40;;
18875;SDS011;9570;50.854;13.778;2023-07-22T12:28:26;2.80;;;2.60;;
18875;SDS011;9570;50.854;13.778;2023-07-22T12:30:52;5.97;;;2.60;;
18875;SDS011;9570;50.854;13.778;2023-07-22T12:33:17;2.60;;;2.40;;
18875;SDS011;9570;50.854;13.778;2023-07-22T12:35:43;2.60;;;2.40;;
18875;SDS011;9570;50.854;13.778;2023-07-22T12:38:08;2.23;;;2.03;;
18875;SDS011;9570;50.854;13.778;2023-07-22T12:40:34;2.63;;;2.43;;
18875;SDS011;9570;50.854;13.778;2023-07-22T12:42:59;4.67;;;2.67;;
18875;SDS011;9570;50.854;13.778;2023-07-22T12:45:25;7.20;;;3.10;;
18875;SDS011;9570;50.854;13.778;2023-07-22T12:47:50;2.70;;;2.50;;
18875;SDS011;9570;50.854;13.778;2023-07-22T12:50:16;2.60;;;2.40;;
18875;SDS011;9570;50.854;13.778;2023-07-22T12:52:41;3.23;;;2.30;;
18875;SDS011;9570;50.854;13.778;2023-07-22T12:55:07;3.40;;;2.67;;
18875;SDS011;9570;50.854;13.778;2023-07-22T12:57:32;2.60;;;2.40;;
18875;SDS011;9570;50.854;13.778;2023-07-22T12:59:58;3.00;;;2.70;;
18875;SDS011;9570;50.854;13.778;2023-07-22T13:02:23;2.63;;;2.43;;
18875;SDS011;9570;50.854;13.778;2023-07-22T13:04:50;4.10;;;2.67;;
18875;SDS011;9570;50.854;13.778;2023-07-22T13:07:15;2.70;;;2.43;;
18875;SDS011;9570;50.854;13.778;2023-07-22T13:09:41;4.77;;;2.47;;
18875;SDS011;9570;50.854;13.778;2023-07-22T13:12:08;2.70;;;2.50;;
18875;SDS011;9570;50.854;13.778;2023-07-22T13:14:34;3.47;;;2.30;;
18875;SDS011;9570;50.854;13.778;2023-07-22T13:16:59;4.37;;;2.50;;
18875;SDS011;9570;50.854;13.778;2023-07-22T13:19:25;2.67;;;2.40;;
18875;SDS011;9570;50.854;13.778;2023-07-22T13:21:50;3.87;;;2.77;;
18875;SDS011;9570;50.854;13.778;2023-07-22T13:24:16;4.37;;;2.30;;
18875;SDS011;9570;50.854;13.778;2023-07-22T13:26:41;3.23;;;2.40;;
18875;SDS011;9570;50.854;13.778;2023-07-22T13:29:07;2.93;;;2.70;;
18875;SDS011;9570;50.854;13.778;2023-07-22T13:31:33;3.50;;;2.50;;
18875;SDS011;9570;50.854;13.778;2023-07-22T13:33:59;2.60;;;2.40;;
18875;SDS011;9570;50.854;13.778;2023-07-22T13:36:25;3.23;;;2.67;;
18875;SDS011;9570;50.854;13.778;2023-07-22T13:38:50;2.90;;;2.60;;
18875;SDS011;9570;50.854;13.778;2023-07-22T13:41:16;3.10;;;2.50;;
18875;SDS011;9570;50.854;13.778;2023-07-22T13:43:41;2.70;;;2.50;;
18875;SDS011;9570;50.854;13.778;2023-07-22T13:46:06;2.83;;;2.63;;
18875;SDS011;9570;50.854;13.778;2023-07-22T13:48:33;3.27;;;2.90;;
18875;SDS011;9570;50.854;13.778;2023-07-22T13:50:58;3.30;;;2.60;;
18875;SDS011;9570;50.854;13.778;2023-07-22T13:53:24;2.70;;;2.50;;
18875;SDS011;9570;50.854;13.778;2023-07-22T13:55:49;2.77;;;2.50;;
18875;SDS011;9570;50.854;13.778;2023-07-22T13:58:15;2.80;;;2.50;;
18875;SDS011;9570;50.854;13.778;2023-07-22T14:00:40;2.77;;;2.57;;
18875;SDS011;9570;50.854;13.778;2023-07-22T14:03:06;2.90;;;2.70;;
18875;SDS011;9570;50.854;13.778;2023-07-22T14:05:31;2.90;;;2.60;;
18875;SDS011;9570;50.854;13.778;2023-07-22T14:07:57;2.77;;;2.50;;
18875;SDS011;9570;50.854;13.778;2023-07-22T14:10:23;2.70;;;2.40;;
18875;SDS011;9570;50.854;13.778;2023-07-22T14:12:48;3.03;;;2.40;;
18875;SDS011;9570;50.854;13.778;2023-07-22T14:15:14;2.73;;;2.50;;
18875;SDS011;9570;50.854;13.778;2023-07-22T14:17:39;2.90;;;2.60;;
18875;SDS011;9570;50.854;13.778;2023-07-22T14:20:05;3.27;;;2.53;;
18875;SDS011;9570;50.854;13.778;2023-07-22T14:22:31;4.30;;;2.50;;
18875;SDS011;9570;50.854;13.778;2023-07-22T14:24:57;2.70;;;2.50;;
18875;SDS011;9570;50.854;13.778;2023-07-22T14:27:23;4.53;;;2.80;;
18875;SDS011;9570;50.854;13.778;2023-07-22T14:29:48;2.77;;;2.50;;
18875;SDS011;9570;50.854;13.778;2023-07-22T14:32:14;6.43;;;2.47;;
18875;SDS011;9570;50.854;13.778;2023-07-22T14:34:41;2.60;;;2.40;;
18875;SDS011;9570;50.854;13.778;2023-07-22T14:37:07;4.20;;;2.30;;
18875;SDS011;9570;50.854;13.778;2023-07-22T14:39:32;3.03;;;2.73;;
18875;SDS011;9570;50.854;13.778;2023-07-22T14:41:58;2.80;;;2.60;;
18875;SDS011;9570;50.854;13.778;2023-07-22T14:44:23;4.07;;;2.53;;
18875;SDS011;9570;50.854;13.778;2023-07-22T14:46:49;3.30;;;3.00;;
18875;SDS011;9570;50.854;13.778;2023-07-22T14:49:15;3.50;;;2.77;;
18875;SDS011;9570;50.854;13.778;2023-07-22T14:51:40;3.07;;;2.77;;
18875;SDS011;9570;50.854;13.778;2023-07-22T14:54:06;3.63;;;2.40;;
18875;SDS011;9570;50.854;13.778;2023-07-22T14:56:31;4.03;;;2.80;;
18875;SDS011;9570;50.854;13.778;2023-07-22T14:58:57;3.40;;;2.60;;
18875;SDS011;9570;50.854;13.778;2023-07-22T15:01:22;3.13;;;2.70;;